Time;durP1;ratioP1;P1;durP2;ratioP2;P2;SDS_P1;SDS_P2;PMS_P1;PMS_P2;Temp;Humidity;BMP_temperature;BMP_pressure;BME280_temperature;BME280_humidity;BME280_pressure;Samples;Min_cycle;Max_cycle;Signal;HPM_P1;HPM_P2
2021/01/07 00:01:12;;;;;;;17.50;13.40;;;2.10;99.90;;;;;;5074649;28;20294;-42
2021/01/07 00:03:39;;;;;;;16.70;13.50;;;2.10;99.90;;;;;;5074601;28;20740;-41
2021/01/07 00:06:08;;;;;;;16.97;13.37;;;2.10;99.90;;;;;;5074669;28;20285;-41
2021/01/07 00:08:36;;;;;;;16.50;13.30;;;2.10;99.90;;;;;;5074522;28;20227;-40
2021/01/07 00:11:03;;;;;;;17.33;13.77;;;2.10;99.90;;;;;;5074274;28;20402;-41
2021/01/07 00:13:31;;;;;;;15.60;13.30;;;2.00;99.90;;;;;;5074587;28;20294;-41
2021/01/07 00:15:58;;;;;;;15.75;13.13;;;2.00;99.90;;;;;;5074386;28;20366;-41
2021/01/07 00:18:26;;;;;;;16.98;12.77;;;2.00;99.90;;;;;;5074423;28;20243;-41
2021/01/07 00:20:53;;;;;;;19.70;14.25;;;2.00;99.90;;;;;;5074407;28;20291;-41
2021/01/07 00:23:20;;;;;;;15.13;13.23;;;2.00;99.90;;;;;;5074105;28;20644;-42
2021/01/07 00:25:48;;;;;;;15.77;12.37;;;2.10;99.90;;;;;;5073985;28;20322;-41
2021/01/07 00:28:17;;;;;;;16.80;12.70;;;2.00;99.90;;;;;;5074359;28;20222;-41
2021/01/07 00:30:44;;;;;;;15.57;13.00;;;2.00;99.90;;;;;;5073904;28;20684;-42
2021/01/07 00:33:13;;;;;;;16.73;12.25;;;2.00;99.90;;;;;;5074114;28;20207;-41
2021/01/07 00:35:41;;;;;;;17.20;13.52;;;2.00;99.90;;;;;;5073984;28;20227;-41
2021/01/07 00:38:08;;;;;;;19.73;14.93;;;2.00;99.90;;;;;;5073784;28;20302;-40
2021/01/07 00:40:36;;;;;;;21.70;13.95;;;1.90;99.90;;;;;;5074061;28;20696;-40
2021/01/07 00:43:03;;;;;;;18.70;13.63;;;1.90;99.90;;;;;;5074014;28;20298;-41
2021/01/07 00:45:31;;;;;;;17.50;13.43;;;1.90;99.90;;;;;;5073152;28;20394;-40
2021/01/07 00:47:59;;;;;;;20.13;14.52;;;1.90;99.90;;;;;;5073683;28;20351;-40
2021/01/07 00:50:26;;;;;;;19.45;14.18;;;2.00;99.90;;;;;;5073502;28;20285;-40
2021/01/07 00:52:54;;;;;;;15.80;13.07;;;2.00;99.90;;;;;;5073872;28;20246;-42
2021/01/07 00:55:21;;;;;;;15.20;12.13;;;2.00;99.90;;;;;;5073743;28;20237;-41
2021/01/07 00:57:48;;;;;;;17.80;13.43;;;2.00;99.90;;;;;;5073723;28;20580;-41
2021/01/07 01:00:18;;;;;;;24.07;17.00;;;2.00;99.90;;;;;;5073417;28;20677;-42
2021/01/07 01:02:46;;;;;;;16.80;14.37;;;2.10;99.90;;;;;;5073327;28;20208;-41
2021/01/07 01:05:14;;;;;;;19.57;14.43;;;2.10;99.90;;;;;;5073461;28;20218;-41
2021/01/07 01:07:41;;;;;;;16.00;12.53;;;2.10;99.90;;;;;;5073158;28;20700;-40
2021/01/07 01:10:11;;;;;;;17.27;13.37;;;2.10;99.90;;;;;;5073230;28;20302;-40
2021/01/07 01:12:38;;;;;;;15.13;12.07;;;2.00;99.90;;;;;;5073321;28;20303;-40
2021/01/07 01:15:09;;;;;;;14.73;12.47;;;2.00;99.90;;;;;;5073053;28;20788;-40
2021/01/07 01:17:36;;;;;;;14.23;11.53;;;2.00;99.90;;;;;;5073114;28;20246;-41
2021/01/07 01:20:06;;;;;;;15.00;12.27;;;2.00;99.90;;;;;;5073464;28;20238;-39
2021/01/07 01:22:33;;;;;;;13.83;11.60;;;2.10;99.90;;;;;;5072913;28;20286;-44
2021/01/07 01:25:01;;;;;;;14.13;11.43;;;2.10;99.90;;;;;;5072863;28;20207;-41
2021/01/07 01:27:28;;;;;;;12.32;10.63;;;2.00;99.90;;;;;;5072907;28;20207;-40
2021/01/07 01:29:55;;;;;;;13.30;11.33;;;2.00;99.90;;;;;;5073094;28;20211;-42
2021/01/07 01:32:22;;;;;;;12.55;10.25;;;2.00;99.90;;;;;;5072854;28;20243;-41
2021/01/07 01:34:50;;;;;;;13.10;10.77;;;2.00;99.90;;;;;;5072943;28;20318;-41
2021/01/07 01:37:17;;;;;;;11.57;10.37;;;2.00;99.90;;;;;;5072767;28;20253;-41
2021/01/07 01:39:44;;;;;;;12.07;10.80;;;2.00;99.90;;;;;;5072795;28;20213;-41
2021/01/07 01:42:12;;;;;;;12.05;10.55;;;2.10;99.90;;;;;;5072662;28;20245;-39
2021/01/07 01:44:40;;;;;;;11.93;10.67;;;2.10;99.90;;;;;;5072698;28;20307;-38
2021/01/07 01:47:07;;;;;;;13.10;10.90;;;2.10;99.90;;;;;;5072647;28;20204;-38
2021/01/07 01:49:34;;;;;;;14.05;11.43;;;2.00;99.90;;;;;;5072658;28;20215;-38
2021/01/07 01:52:01;;;;;;;12.48;9.90;;;2.10;99.90;;;;;;5072632;28;20647;-38
2021/01/07 01:54:28;;;;;;;11.13;9.83;;;2.10;99.90;;;;;;5072335;28;20223;-38
2021/01/07 01:56:57;;;;;;;11.27;9.67;;;2.10;99.90;;;;;;5072365;28;20731;-39
2021/01/07 01:59:29;;;;;;;13.35;10.52;;;2.10;99.90;;;;;;5072238;28;20305;-39
2021/01/07 02:02:04;;;;;;;12.88;10.70;;;2.10;99.90;;;;;;5072540;28;20208;-39
2021/01/07 02:04:31;;;;;;;11.90;10.63;;;2.10;99.90;;;;;;5072456;28;20213;-40
2021/01/07 02:06:59;;;;;;;11.60;9.67;;;2.00;99.90;;;;;;5072212;28;20688;-41
2021/01/07 02:09:26;;;;;;;10.90;9.53;;;2.10;99.90;;;;;;5072186;28;20575;-41
2021/01/07 02:11:54;;;;;;;11.77;10.00;;;2.10;99.90;;;;;;5071871;28;20314;-39
2021/01/07 02:14:21;;;;;;;11.87;9.97;;;2.10;99.90;;;;;;5071996;28;20238;-39
2021/01/07 02:16:48;;;;;;;10.50;9.37;;;2.10;99.90;;;;;;5072348;28;20212;-39
2021/01/07 02:19:15;;;;;;;13.02;9.55;;;2.10;99.90;;;;;;5072106;28;20278;-39
2021/01/07 02:21:43;;;;;;;10.67;9.17;;;2.10;99.90;;;;;;5071958;28;20298;-39
2021/01/07 02:24:11;;;;;;;10.82;9.65;;;2.10;99.90;;;;;;5071979;28;20247;-39
2021/01/07 02:26:38;;;;;;;13.67;10.40;;;2.00;99.90;;;;;;5071924;28;20302;-40
2021/01/07 02:29:05;;;;;;;10.55;9.45;;;2.00;99.90;;;;;;5071860;28;20294;-40
2021/01/07 02:31:33;;;;;;;11.27;10.17;;;2.00;99.90;;;;;;5072151;28;20244;-40
2021/01/07 02:34:00;;;;;;;11.23;9.38;;;2.00;99.90;;;;;;5071958;28;20203;-39
2021/01/07 02:36:27;;;;;;;10.47;9.37;;;2.00;99.90;;;;;;5071947;28;20246;-39
2021/01/07 02:38:55;;;;;;;10.48;9.45;;;2.00;99.90;;;;;;5072254;28;20243;-39
2021/01/07 02:41:22;;;;;;;10.10;8.95;;;2.00;99.90;;;;;;5072012;28;20217;-39
2021/01/07 02:43:49;;;;;;;12.13;9.30;;;2.00;99.90;;;;;;5072034;28;20207;-41
2021/01/07 02:46:17;;;;;;;9.95;8.95;;;2.00;99.90;;;;;;5071917;28;20211;-39
2021/01/07 02:48:43;;;;;;;10.80;9.70;;;2.00;99.90;;;;;;5071818;28;20303;-39
2021/01/07 02:51:10;;;;;;;10.77;9.30;;;2.00;99.90;;;;;;5071697;28;20276;-39
2021/01/07 02:53:37;;;;;;;11.75;10.10;;;2.00;99.90;;;;;;5071644;28;20629;-39
2021/01/07 02:56:05;;;;;;;10.38;8.45;;;2.00;99.90;;;;;;5071861;28;20291;-39
2021/01/07 02:58:38;;;;;;;10.68;8.93;;;2.00;99.90;;;;;;5071608;28;20203;-40
2021/01/07 03:01:04;;;;;;;10.60;9.05;;;2.00;99.90;;;;;;5071774;28;20613;-39
2021/01/07 03:03:31;;;;;;;11.65;8.60;;;2.00;99.90;;;;;;5071727;28;20766;-40
2021/01/07 03:05:58;;;;;;;10.47;9.07;;;1.90;99.90;;;;;;5071615;28;20623;-40
2021/01/07 03:08:25;;;;;;;9.70;8.70;;;2.00;99.90;;;;;;5071532;28;20207;-40
2021/01/07 03:10:52;;;;;;;10.33;9.20;;;1.90;99.90;;;;;;5074875;28;20800;-40
2021/01/07 03:13:20;;;;;;;8.68;7.80;;;2.00;99.90;;;;;;5075470;28;20290;-40
2021/01/07 03:15:47;;;;;;;9.95;8.52;;;2.00;99.90;;;;;;5075531;28;20228;-40
2021/01/07 03:18:14;;;;;;;10.63;9.45;;;2.00;99.90;;;;;;5075440;28;20637;-40
2021/01/07 03:20:41;;;;;;;10.05;8.90;;;2.00;99.90;;;;;;5076130;28;20211;-38
2021/01/07 03:23:08;;;;;;;12.33;9.50;;;2.00;99.90;;;;;;5077666;28;20211;-40
2021/01/07 03:25:35;;;;;;;11.67;9.33;;;2.00;99.90;;;;;;5075506;28;20238;-41
2021/01/07 03:28:03;;;;;;;11.07;8.63;;;2.00;99.90;;;;;;5075493;28;20213;-42
2021/01/07 03:30:30;;;;;;;10.38;9.05;;;2.00;99.90;;;;;;5075357;28;20471;-42
2021/01/07 03:32:58;;;;;;;10.33;9.03;;;2.00;99.90;;;;;;5075129;28;20731;-41
2021/01/07 03:35:25;;;;;;;11.07;8.80;;;2.00;99.90;;;;;;5075041;28;20227;-41
2021/01/07 03:37:52;;;;;;;10.40;8.87;;;2.00;99.90;;;;;;5075350;28;20257;-41
2021/01/07 03:40:19;;;;;;;12.50;10.25;;;2.00;99.90;;;;;;5075261;28;20235;-41
2021/01/07 03:42:46;;;;;;;11.57;10.27;;;2.00;99.90;;;;;;5075130;28;20233;-41
2021/01/07 03:45:14;;;;;;;12.75;10.30;;;2.10;99.90;;;;;;5074961;28;20709;-41
2021/01/07 03:47:42;;;;;;;10.60;9.60;;;2.10;99.90;;;;;;5074887;28;20714;-42
2021/01/07 03:50:10;;;;;;;15.57;12.55;;;2.00;99.90;;;;;;5075061;28;20306;-42
2021/01/07 03:52:38;;;;;;;15.40;11.07;;;2.10;99.90;;;;;;5074871;28;20264;-42
2021/01/07 03:55:06;;;;;;;14.43;11.50;;;2.10;99.90;;;;;;5074788;28;20346;-42
2021/01/07 03:57:33;;;;;;;12.05;9.82;;;2.10;99.90;;;;;;5074809;28;20284;-42
2021/01/07 04:00:00;;;;;;;20.63;15.25;;;2.10;99.90;;;;;;5074719;28;20673;-42
2021/01/07 04:02:27;;;;;;;19.30;13.50;;;2.00;99.90;;;;;;5074662;28;20286;-42
2021/01/07 04:04:55;;;;;;;14.68;11.52;;;2.10;99.90;;;;;;5074788;28;20295;-42
2021/01/07 04:07:22;;;;;;;17.88;12.82;;;2.10;99.90;;;;;;5074737;28;20299;-40
2021/01/07 04:09:49;;;;;;;14.33;11.20;;;2.10;99.90;;;;;;5074619;28;20725;-40
2021/01/07 04:12:16;;;;;;;16.67;12.50;;;2.20;99.90;;;;;;5074347;28;20246;-43
2021/01/07 04:15:00;;;;;;;19.15;14.75;;;2.20;99.90;;;;;;5074218;28;20238;-41
2021/01/07 04:17:27;;;;;;;14.52;11.35;;;2.20;99.90;;;;;;5074385;28;20298;-41
2021/01/07 04:19:55;;;;;;;22.17;16.20;;;2.20;99.90;;;;;;5074121;28;20684;-41
2021/01/07 04:22:22;;;;;;;17.25;12.57;;;2.10;99.90;;;;;;5073207;28;20249;-41
2021/01/07 04:24:49;;;;;;;17.48;13.45;;;2.20;99.90;;;;;;5074170;28;20209;-41
2021/01/07 04:27:16;;;;;;;17.17;12.63;;;2.20;99.90;;;;;;5074042;28;20211;-41
2021/01/07 04:29:44;;;;;;;12.93;10.55;;;2.20;99.90;;;;;;5074249;28;20229;-41
2021/01/07 04:32:12;;;;;;;14.35;11.05;;;2.20;99.90;;;;;;5074005;28;20261;-41
2021/01/07 04:34:39;;;;;;;22.98;15.32;;;2.20;99.90;;;;;;5074051;28;20596;-41
2021/01/07 04:37:07;;;;;;;15.32;11.85;;;2.20;99.90;;;;;;5074048;28;20256;-41
2021/01/07 04:39:34;;;;;;;17.73;12.50;;;2.20;99.90;;;;;;5073891;28;20214;-40
2021/01/07 04:42:01;;;;;;;18.23;13.70;;;2.20;99.90;;;;;;5073782;28;20700;-39
2021/01/07 04:44:30;;;;;;;19.98;15.10;;;2.20;99.90;;;;;;5073998;28;20214;-41
2021/01/07 04:46:59;;;;;;;16.35;12.88;;;2.20;99.90;;;;;;5073965;28;20302;-42
2021/01/07 04:49:26;;;;;;;13.88;12.32;;;2.20;99.90;;;;;;5073895;28;20231;-40
2021/01/07 04:51:53;;;;;;;14.90;11.88;;;2.20;99.90;;;;;;5073639;28;20742;-41
2021/01/07 04:54:22;;;;;;;15.48;12.85;;;2.20;99.90;;;;;;5073454;28;20665;-41
2021/01/07 04:56:49;;;;;;;12.80;11.33;;;2.20;99.90;;;;;;5073838;28;20265;-43
2021/01/07 04:59:16;;;;;;;14.40;11.90;;;2.20;99.90;;;;;;5073777;28;20294;-41
2021/01/07 05:01:45;;;;;;;13.77;11.68;;;2.20;99.90;;;;;;5073500;28;20207;-42
2021/01/07 05:04:14;;;;;;;12.75;11.30;;;2.20;99.90;;;;;;5073634;28;20383;-43
2021/01/07 05:06:41;;;;;;;13.52;10.93;;;2.20;99.90;;;;;;5073290;28;20705;-43
2021/01/07 05:09:09;;;;;;;15.63;12.83;;;2.20;99.90;;;;;;5073545;28;20302;-42
2021/01/07 05:11:37;;;;;;;15.02;12.43;;;2.20;99.90;;;;;;5073932;28;20285;-42
2021/01/07 05:14:06;;;;;;;14.77;12.80;;;2.20;99.90;;;;;;5075674;28;20203;-43
2021/01/07 05:16:34;;;;;;;14.20;11.77;;;2.20;99.90;;;;;;5073140;28;20235;-43
2021/01/07 05:19:04;;;;;;;13.18;11.18;;;2.30;99.90;;;;;;5073079;28;20299;-43
2021/01/07 05:21:31;;;;;;;14.00;11.57;;;2.30;99.90;;;;;;5073026;28;20245;-44
2021/01/07 05:23:59;;;;;;;14.88;11.88;;;2.30;99.90;;;;;;5073002;28;20290;-41
2021/01/07 05:26:26;;;;;;;15.33;12.83;;;2.30;99.90;;;;;;5072969;28;20640;-44
2021/01/07 05:28:55;;;;;;;17.10;13.20;;;2.20;99.90;;;;;;5072823;28;20212;-39
2021/01/07 05:31:24;;;;;;;14.55;12.30;;;2.30;99.90;;;;;;5073026;28;20302;-41
2021/01/07 05:33:52;;;;;;;13.23;11.45;;;2.30;99.90;;;;;;5072491;28;20314;-41
2021/01/07 05:36:24;;;;;;;14.77;11.73;;;2.30;99.90;;;;;;5073074;28;20231;-39
2021/01/07 05:38:52;;;;;;;16.07;11.97;;;2.30;99.90;;;;;;5072840;28;20242;-39
2021/01/07 05:41:20;;;;;;;17.97;12.83;;;2.20;99.90;;;;;;5072735;28;20213;-40
2021/01/07 05:43:59;;;;;;;14.03;12.17;;;2.20;99.90;;;;;;5072769;28;20214;-41
2021/01/07 05:46:26;;;;;;;16.83;12.67;;;2.30;99.90;;;;;;5072540;28;20286;-40
2021/01/07 05:48:54;;;;;;;24.30;18.50;;;2.30;99.90;;;;;;5072928;28;20348;-40
2021/01/07 05:51:24;;;;;;;14.05;11.35;;;2.30;99.90;;;;;;5072590;28;20214;-43
2021/01/07 05:53:52;;;;;;;19.52;14.35;;;2.30;99.90;;;;;;5072895;28;20608;-44
2021/01/07 05:56:20;;;;;;;14.15;11.90;;;2.20;99.90;;;;;;5072238;28;20276;-44
2021/01/07 05:58:48;;;;;;;17.02;13.18;;;2.20;99.90;;;;;;5072559;28;20357;-44
2021/01/07 06:01:16;;;;;;;15.73;12.73;;;2.10;99.90;;;;;;5072279;28;20303;-41
2021/01/07 06:03:48;;;;;;;17.90;13.35;;;2.10;99.90;;;;;;5072561;28;20299;-41
2021/01/07 06:06:16;;;;;;;17.70;12.97;;;2.10;99.90;;;;;;5072749;28;20329;-41
2021/01/07 06:08:49;;;;;;;15.88;13.05;;;2.10;99.90;;;;;;5072335;28;20662;-41
2021/01/07 06:11:17;;;;;;;16.13;13.03;;;2.10;99.90;;;;;;5071664;28;20278;-44
2021/01/07 06:13:47;;;;;;;16.67;13.90;;;2.10;99.90;;;;;;5071417;28;20721;-42
2021/01/07 06:16:17;;;;;;;18.48;13.25;;;2.10;99.90;;;;;;5072089;28;20318;-42
2021/01/07 06:18:45;;;;;;;18.90;14.20;;;2.20;99.90;;;;;;5071903;28;20397;-44
2021/01/07 06:21:14;;;;;;;17.00;13.67;;;2.20;99.90;;;;;;5071944;28;20556;-44
2021/01/07 06:23:42;;;;;;;19.35;14.07;;;2.20;99.90;;;;;;5071741;28;20203;-46
2021/01/07 06:26:24;;;;;;;16.30;13.07;;;2.20;99.90;;;;;;5071394;28;20199;-45
2021/01/07 06:28:53;;;;;;;17.33;13.13;;;2.20;99.90;;;;;;5071876;28;20264;-44
2021/01/07 06:31:30;;;;;;;18.43;14.80;;;2.20;99.90;;;;;;5071599;28;20293;-48
2021/01/07 06:33:57;;;;;;;17.80;13.02;;;2.20;99.90;;;;;;5071671;28;20207;-47
2021/01/07 06:36:36;;;;;;;19.75;14.57;;;2.20;99.90;;;;;;5071422;28;20227;-47
2021/01/07 06:39:05;;;;;;;17.63;12.70;;;2.30;99.90;;;;;;5071961;28;20261;-44
2021/01/07 06:41:32;;;;;;;17.27;13.73;;;2.30;99.90;;;;;;5071847;28;20290;-47
2021/01/07 06:44:01;;;;;;;20.03;14.60;;;2.20;99.90;;;;;;5071028;28;20284;-47
2021/01/07 06:46:40;;;;;;;19.77;14.80;;;2.30;99.90;;;;;;5071756;28;20344;-45
2021/01/07 06:49:23;;;;;;;16.37;13.30;;;2.30;99.90;;;;;;5071504;28;20290;-46
2021/01/07 06:51:59;;;;;;;18.40;14.73;;;2.30;99.90;;;;;;5071455;28;20222;-45
2021/01/07 06:54:31;;;;;;;17.53;14.07;;;2.30;99.90;;;;;;5071600;28;20203;-46
2021/01/07 06:56:59;;;;;;;17.33;13.50;;;2.30;99.90;;;;;;5071722;28;20207;-45
2021/01/07 06:59:26;;;;;;;20.90;14.53;;;2.20;99.90;;;;;;5071652;28;20207;-49
2021/01/07 07:01:57;;;;;;;16.48;12.80;;;2.20;99.90;;;;;;5071776;28;20235;-47
2021/01/07 07:04:29;;;;;;;19.67;14.43;;;2.20;99.90;;;;;;5071881;28;20203;-48
2021/01/07 07:07:09;;;;;;;18.40;13.63;;;2.30;99.90;;;;;;5071567;28;20289;-46
2021/01/07 07:09:39;;;;;;;19.30;13.53;;;2.20;99.90;;;;;;5071720;28;20291;-47
2021/01/07 07:12:07;;;;;;;19.80;14.27;;;2.20;99.90;;;;;;5071553;28;20668;-44
2021/01/07 07:14:34;;;;;;;17.73;13.87;;;2.20;99.90;;;;;;5071753;28;20257;-44
2021/01/07 07:17:09;;;;;;;20.10;14.48;;;2.30;99.90;;;;;;5071675;28;20306;-42
2021/01/07 07:19:38;;;;;;;19.17;13.73;;;2.20;99.90;;;;;;5071527;28;20235;-43
2021/01/07 07:22:09;;;;;;;17.97;14.00;;;2.20;99.90;;;;;;5071384;28;20265;-42
2021/01/07 07:24:39;;;;;;;20.17;14.80;;;2.30;99.90;;;;;;5071341;28;20687;-45
2021/01/07 07:27:09;;;;;;;19.60;14.90;;;2.30;99.90;;;;;;5071481;28;20302;-43
2021/01/07 07:29:38;;;;;;;20.57;15.17;;;2.30;99.90;;;;;;5071294;28;20290;-43
2021/01/07 07:32:21;;;;;;;23.15;16.23;;;2.30;99.90;;;;;;5071415;28;20582;-44
2021/01/07 07:34:50;;;;;;;19.00;14.82;;;2.30;99.90;;;;;;5069568;28;20222;-42
2021/01/07 07:37:25;;;;;;;20.97;15.10;;;2.30;99.90;;;;;;5071199;28;20238;-44
2021/01/07 07:40:00;;;;;;;18.03;14.70;;;2.40;99.90;;;;;;5071186;28;20314;-44
2021/01/07 07:42:28;;;;;;;20.35;15.32;;;2.40;99.90;;;;;;5071314;28;20234;-45
2021/01/07 07:44:57;;;;;;;18.90;14.27;;;2.40;99.90;;;;;;5071286;28;20211;-44
2021/01/07 07:47:25;;;;;;;21.87;15.27;;;2.50;99.90;;;;;;5071162;28;20254;-45
2021/01/07 07:49:56;;;;;;;21.80;16.08;;;2.40;99.90;;;;;;5071066;28;20306;-42
2021/01/07 07:52:23;;;;;;;21.42;15.48;;;2.40;99.90;;;;;;5071291;28;20326;-48
2021/01/07 07:55:00;;;;;;;27.38;16.58;;;2.40;99.90;;;;;;5071163;28;20310;-44
2021/01/07 07:57:27;;;;;;;22.73;16.88;;;2.40;99.90;;;;;;5074658;28;20302;-43
2021/01/07 07:59:54;;;;;;;24.87;16.87;;;2.40;99.90;;;;;;5074526;28;20235;-41
2021/01/07 08:02:21;;;;;;;24.53;17.63;;;2.40;99.90;;;;;;5074458;28;20622;-41
2021/01/07 08:04:49;;;;;;;20.75;16.63;;;2.50;99.90;;;;;;5074597;28;20242;-45
2021/01/07 08:07:16;;;;;;;27.58;20.85;;;2.50;99.90;;;;;;5074605;28;20299;-43
2021/01/07 08:09:43;;;;;;;23.50;17.20;;;2.50;99.90;;;;;;5074463;28;20614;-44
2021/01/07 08:12:11;;;;;;;26.73;18.87;;;2.50;99.90;;;;;;5074297;28;20238;-44
2021/01/07 08:14:41;;;;;;;23.10;16.77;;;2.60;99.90;;;;;;5074426;28;20214;-42
2021/01/07 08:17:07;;;;;;;23.30;17.67;;;2.60;99.90;;;;;;5074628;28;20290;-43
2021/01/07 08:19:36;;;;;;;24.33;17.97;;;2.70;99.90;;;;;;5074601;28;20231;-41
2021/01/07 08:22:04;;;;;;;24.93;17.97;;;2.70;99.90;;;;;;5074410;28;20207;-41
2021/01/07 08:24:31;;;;;;;23.63;17.80;;;2.80;99.90;;;;;;5074218;28;20235;-41
2021/01/07 08:27:09;;;;;;;23.77;17.98;;;2.80;99.90;;;;;;5074164;28;20272;-41
2021/01/07 08:29:39;;;;;;;23.17;17.27;;;2.80;99.90;;;;;;5074354;28;20715;-42
2021/01/07 08:32:07;;;;;;;24.00;18.23;;;2.80;99.90;;;;;;5074370;28;20265;-42
2021/01/07 08:34:34;;;;;;;24.30;16.80;;;2.90;99.90;;;;;;5074198;28;20669;-42
2021/01/07 08:37:13;;;;;;;20.40;15.70;;;2.90;99.90;;;;;;5073982;28;20227;-42
2021/01/07 08:39:41;;;;;;;24.00;17.10;;;3.00;99.90;;;;;;5074398;28;20311;-43
2021/01/07 08:42:09;;;;;;;24.10;18.03;;;3.00;99.90;;;;;;5074244;28;20203;-43
2021/01/07 08:44:36;;;;;;;24.52;17.70;;;3.00;99.90;;;;;;5074057;28;20207;-43
2021/01/07 08:47:19;;;;;;;22.10;16.88;;;3.10;99.90;;;;;;5073931;28;20268;-43
2021/01/07 08:49:46;;;;;;;22.23;15.35;;;3.10;99.90;;;;;;5073923;28;20214;-44
2021/01/07 08:52:14;;;;;;;22.27;16.33;;;3.20;99.90;;;;;;5073924;28;20261;-44
2021/01/07 08:54:41;;;;;;;24.07;17.00;;;3.20;99.90;;;;;;5073811;28;20294;-43
2021/01/07 08:57:12;;;;;;;24.55;17.77;;;3.30;99.90;;;;;;5073632;28;20614;-46
2021/01/07 08:59:40;;;;;;;21.98;16.40;;;3.30;99.90;;;;;;5073716;28;20309;-43
2021/01/07 09:02:19;;;;;;;23.83;17.58;;;3.40;99.90;;;;;;5073442;28;20298;-43
2021/01/07 09:04:49;;;;;;;24.00;16.77;;;3.50;99.90;;;;;;5073564;28;20264;-43
2021/01/07 09:07:21;;;;;;;21.45;16.73;;;3.60;99.90;;;;;;5073387;28;20207;-43
2021/01/07 09:09:49;;;;;;;24.47;18.10;;;3.60;99.90;;;;;;5073504;28;20211;-45
2021/01/07 09:12:19;;;;;;;25.53;17.33;;;3.50;99.90;;;;;;5073262;28;20235;-46
2021/01/07 09:14:54;;;;;;;27.45;19.25;;;3.50;99.90;;;;;;5073291;28;20640;-48
2021/01/07 09:17:23;;;;;;;24.05;17.35;;;3.40;99.90;;;;;;5073243;28;20680;-44
2021/01/07 09:19:50;;;;;;;28.23;18.98;;;3.50;99.90;;;;;;5073224;28;20234;-43
2021/01/07 09:22:23;;;;;;;24.65;18.83;;;3.60;99.90;;;;;;5073234;28;20276;-45
2021/01/07 09:24:51;;;;;;;43.65;26.25;;;3.70;99.90;;;;;;5073246;28;20243;-45
2021/01/07 09:27:20;;;;;;;28.67;20.80;;;3.80;99.90;;;;;;5073098;28;20346;-45
2021/01/07 09:29:48;;;;;;;24.30;17.42;;;3.90;99.90;;;;;;5073161;28;20302;-44
2021/01/07 09:32:15;;;;;;;26.80;19.88;;;4.00;99.90;;;;;;5073008;28;20203;-45
2021/01/07 09:34:43;;;;;;;38.85;24.98;;;4.10;99.90;;;;;;5073095;28;20809;-47
2021/01/07 09:37:13;;;;;;;24.40;16.85;;;4.10;99.90;;;;;;5072873;28;20231;-47
2021/01/07 09:39:42;;;;;;;27.90;18.88;;;4.20;99.90;;;;;;5073029;28;20260;-46
2021/01/07 09:42:16;;;;;;;25.08;18.50;;;4.20;99.90;;;;;;5072912;28;20209;-42
2021/01/07 09:44:44;;;;;;;23.80;17.27;;;4.10;99.90;;;;;;5073148;28;20215;-43
2021/01/07 09:47:11;;;;;;;24.77;18.67;;;4.10;99.90;;;;;;5072646;28;20575;-43
2021/01/07 09:49:39;;;;;;;24.60;17.92;;;4.10;99.90;;;;;;5072497;28;20204;-49
2021/01/07 09:52:06;;;;;;;24.55;16.98;;;4.00;99.90;;;;;;5072428;28;20295;-45
2021/01/07 09:54:34;;;;;;;22.38;18.13;;;4.00;99.90;;;;;;5072504;28;20208;-48
2021/01/07 09:57:02;;;;;;;24.50;17.35;;;4.00;99.90;;;;;;5072444;28;20234;-50
2021/01/07 09:59:30;;;;;;;24.75;17.80;;;4.10;99.90;;;;;;5072359;28;20222;-43
2021/01/07 10:01:58;;;;;;;25.50;18.15;;;4.10;99.90;;;;;;5072373;28;20315;-45
2021/01/07 10:04:26;;;;;;;24.15;18.70;;;4.20;99.90;;;;;;5072209;28;20243;-43
2021/01/07 10:06:54;;;;;;;24.77;17.73;;;4.30;99.90;;;;;;5072382;28;20210;-43
2021/01/07 10:09:20;;;;;;;31.67;22.48;;;4.20;99.90;;;;;;5072547;28;20298;-46
2021/01/07 10:11:51;;;;;;;30.35;20.33;;;4.20;99.90;;;;;;5072324;28;20263;-43
2021/01/07 10:14:20;;;;;;;24.70;18.43;;;4.30;99.90;;;;;;5072353;28;20235;-45
2021/01/07 10:16:48;;;;;;;25.47;18.90;;;4.30;99.90;;;;;;5071856;28;20314;-46
2021/01/07 10:19:15;;;;;;;25.63;18.63;;;4.30;99.90;;;;;;5071154;28;20258;-43
2021/01/07 10:21:46;;;;;;;28.90;20.85;;;4.30;99.90;;;;;;5071938;28;20279;-43
2021/01/07 10:24:15;;;;;;;32.35;23.17;;;4.20;99.90;;;;;;5071780;28;20262;-44
2021/01/07 10:26:58;;;;;;;26.70;19.08;;;4.30;99.90;;;;;;5072250;28;20264;-45
2021/01/07 10:29:29;;;;;;;23.33;17.15;;;4.40;99.90;;;;;;5071731;28;20306;-44
2021/01/07 10:31:59;;;;;;;26.75;18.23;;;4.50;99.90;;;;;;5071538;28;20207;-44
2021/01/07 10:34:28;;;;;;;23.88;17.77;;;4.50;99.90;;;;;;5071904;28;20328;-43
2021/01/07 10:36:58;;;;;;;25.60;18.48;;;4.50;99.90;;;;;;5072043;28;20415;-42
2021/01/07 10:39:25;;;;;;;27.47;19.73;;;4.50;99.90;;;;;;5071955;28;20234;-44
2021/01/07 10:41:56;;;;;;;22.52;16.98;;;4.60;99.90;;;;;;5072000;28;20314;-45
2021/01/07 10:44:23;;;;;;;24.42;18.02;;;4.60;99.90;;;;;;5071937;28;20211;-44
2021/01/07 10:46:57;;;;;;;24.15;17.20;;;4.60;99.90;;;;;;5071770;28;20298;-43
2021/01/07 10:49:26;;;;;;;22.63;16.63;;;4.60;99.90;;;;;;5072110;28;20329;-44
2021/01/07 10:52:32;;;;;;;24.85;17.60;;;4.60;99.90;;;;;;5071707;28;20294;-43
2021/01/07 10:55:09;;;;;;;23.92;18.38;;;4.50;99.90;;;;;;5071711;28;20302;-44
2021/01/07 10:57:51;;;;;;;24.48;17.17;;;4.50;99.90;;;;;;5072023;28;20294;-43
2021/01/07 11:00:28;;;;;;;24.17;17.05;;;4.50;99.90;;;;;;5071912;28;20235;-43
2021/01/07 11:03:20;;;;;;;21.30;17.13;;;4.40;99.90;;;;;;5071879;28;20239;-43
2021/01/07 11:05:52;;;;;;;22.35;16.42;;;4.50;99.90;;;;;;5071969;28;20634;-43
2021/01/07 11:08:26;;;;;;;22.07;16.63;;;4.50;99.90;;;;;;5072049;28;20241;-43
2021/01/07 11:10:54;;;;;;;29.00;18.63;;;4.70;99.90;;;;;;5071597;28;20322;-46
2021/01/07 11:13:23;;;;;;;23.20;17.25;;;4.70;99.90;;;;;;5071644;28;20258;-44
2021/01/07 11:15:55;;;;;;;21.85;16.10;;;4.70;99.90;;;;;;5071580;28;20305;-46
2021/01/07 11:18:27;;;;;;;22.02;16.77;;;4.80;99.90;;;;;;5071567;28;20610;-44
2021/01/07 11:21:00;;;;;;;26.87;19.57;;;4.80;99.90;;;;;;5071378;28;20211;-43
2021/01/07 11:23:28;;;;;;;27.45;19.20;;;4.80;99.90;;;;;;5071506;28;20250;-45
2021/01/07 11:25:55;;;;;;;26.27;17.98;;;4.90;99.90;;;;;;5071753;28;20235;-44
2021/01/07 11:28:22;;;;;;;26.42;17.80;;;5.00;99.90;;;;;;5071792;28;20207;-46
2021/01/07 11:30:50;;;;;;;22.30;16.63;;;5.00;99.90;;;;;;5073544;28;20239;-44
2021/01/07 11:33:17;;;;;;;23.30;17.58;;;5.00;99.90;;;;;;5075466;28;20294;-46
2021/01/07 11:35:46;;;;;;;24.13;18.38;;;4.90;99.90;;;;;;5076140;28;20662;-44
2021/01/07 11:38:23;;;;;;;23.07;16.47;;;5.00;99.90;;;;;;5075183;28;20270;-47
2021/01/07 11:41:02;;;;;;;22.52;16.17;;;5.00;99.90;;;;;;5075546;28;20526;-45
2021/01/07 11:43:59;;;;;;;20.58;14.95;;;5.10;99.90;;;;;;5075281;28;20301;-47
2021/01/07 11:46:30;;;;;;;20.67;15.63;;;5.20;99.90;;;;;;5075138;28;20203;-45
2021/01/07 11:48:58;;;;;;;18.20;15.27;;;5.40;99.90;;;;;;5074792;28;20670;-44
2021/01/07 11:51:26;;;;;;;18.33;13.38;;;5.60;99.90;;;;;;5074985;28;20207;-44
2021/01/07 11:53:58;;;;;;;15.90;12.68;;;5.80;99.90;;;;;;5075058;28;20254;-47
2021/01/07 11:56:25;;;;;;;15.52;11.70;;;5.90;99.90;;;;;;5074107;28;20314;-45
2021/01/07 11:58:53;;;;;;;15.35;12.05;;;5.80;99.90;;;;;;5074783;28;20247;-44
2021/01/07 12:01:21;;;;;;;15.07;12.02;;;5.70;99.90;;;;;;5074592;28;20261;-42
2021/01/07 12:03:49;;;;;;;17.88;13.73;;;5.70;99.90;;;;;;5074829;28;20287;-44
2021/01/07 12:06:18;;;;;;;15.95;11.90;;;5.50;99.90;;;;;;5074877;28;20265;-45
2021/01/07 12:09:04;;;;;;;19.88;15.32;;;5.40;99.90;;;;;;5074661;28;20211;-46
2021/01/07 12:11:41;;;;;;;13.55;10.70;;;5.30;99.90;;;;;;5074550;28;20275;-45
2021/01/07 12:14:13;;;;;;;29.42;20.27;;;5.30;99.90;;;;;;5074834;28;20240;-46
2021/01/07 12:16:47;;;;;;;16.80;13.48;;;5.30;99.90;;;;;;5074630;28;20231;-41
2021/01/07 12:19:32;;;;;;;17.95;13.15;;;5.30;99.90;;;;;;5074502;28;20207;-51
2021/01/07 12:22:02;;;;;;;15.10;12.73;;;5.30;99.90;;;;;;5074649;28;20261;-44
2021/01/07 12:24:32;;;;;;;17.88;13.27;;;5.30;99.90;;;;;;5074274;28;20225;-44
2021/01/07 12:27:01;;;;;;;19.58;15.43;;;5.30;99.90;;;;;;5074257;28;20245;-47
2021/01/07 12:29:29;;;;;;;20.58;15.25;;;5.20;99.90;;;;;;5074227;28;20298;-43
2021/01/07 12:31:58;;;;;;;18.67;13.95;;;5.20;99.90;;;;;;5074136;28;20242;-47
2021/01/07 12:34:32;;;;;;;16.98;13.45;;;5.10;99.90;;;;;;5074069;28;20218;-45
2021/01/07 12:37:08;;;;;;;20.02;14.88;;;5.00;99.90;;;;;;5074044;28;20245;-43
2021/01/07 12:39:40;;;;;;;19.23;13.95;;;5.00;99.90;;;;;;5074062;28;20680;-44
2021/01/07 12:42:11;;;;;;;27.80;18.35;;;5.10;99.90;;;;;;5073085;28;20616;-46
2021/01/07 12:44:42;;;;;;;19.50;13.82;;;5.00;99.90;;;;;;5073980;28;20243;-47
2021/01/07 12:47:13;;;;;;;20.85;16.05;;;5.00;99.90;;;;;;5073881;28;20236;-47
2021/01/07 12:49:43;;;;;;;28.20;17.67;;;5.20;99.90;;;;;;5074122;28;20294;-44